Time;durP1;ratioP1;P1;durP2;ratioP2;P2;SDS_P1;SDS_P2;PMS_P1;PMS_P2;Temp;Humidity;BMP_temperature;BMP_pressure;BME280_temperature;BME280_humidity;BME280_pressure;Samples;Min_cycle;Max_cycle;Signal;HPM_P1;HPM_P2
2022/10/27 00:00:40;;;;;;;19.05;8.20;;;18.80;99.90;;;;;;5072235;28;20096;-62
2022/10/27 00:03:08;;;;;;;20.00;8.65;;;18.80;99.90;;;;;;5072083;28;20032;-62
2022/10/27 00:05:34;;;;;;;19.35;7.80;;;18.80;99.90;;;;;;5071770;28;20059;-62
2022/10/27 00:08:00;;;;;;;18.70;8.30;;;18.90;99.90;;;;;;5072430;28;20055;-62
2022/10/27 00:10:25;;;;;;;24.00;8.65;;;18.80;99.90;;;;;;5072236;28;20032;-62
2022/10/27 00:12:51;;;;;;;15.95;7.93;;;18.80;99.90;;;;;;5071979;28;20433;-62
2022/10/27 00:15:17;;;;;;;21.92;8.35;;;18.80;99.90;;;;;;5072023;28;20043;-62
2022/10/27 00:17:43;;;;;;;20.88;8.93;;;18.90;99.90;;;;;;5072398;28;20031;-62
2022/10/27 00:20:09;;;;;;;22.27;8.55;;;18.90;99.90;;;;;;5071824;28;20447;-62
2022/10/27 00:22:35;;;;;;;24.58;9.35;;;18.90;99.90;;;;;;5071873;28;20399;-62
2022/10/27 00:25:01;;;;;;;17.08;8.25;;;18.80;99.90;;;;;;5071969;28;20020;-62
2022/10/27 00:27:27;;;;;;;15.73;7.32;;;19.00;99.90;;;;;;5071767;28;20043;-62
2022/10/27 00:29:53;;;;;;;15.60;7.15;;;18.90;99.90;;;;;;5072491;28;20141;-62
2022/10/27 00:32:19;;;;;;;17.85;8.05;;;19.00;99.90;;;;;;5071997;28;20049;-62
2022/10/27 00:34:44;;;;;;;14.52;6.93;;;19.00;99.90;;;;;;5080635;28;20498;-62
2022/10/27 00:37:10;;;;;;;16.23;7.97;;;19.00;99.90;;;;;;5091992;28;20032;-62
2022/10/27 00:39:36;;;;;;;17.08;8.05;;;19.00;99.90;;;;;;5091875;28;20048;-62
2022/10/27 00:42:01;;;;;;;18.38;7.55;;;19.00;99.90;;;;;;5095052;28;20028;-62
2022/10/27 00:44:39;;;;;;;13.38;7.25;;;18.90;99.90;;;;;;5096177;28;20107;-62
2022/10/27 00:47:22;;;;;;;14.13;7.90;;;18.90;99.90;;;;;;5096187;28;20513;-62
2022/10/27 00:49:54;;;;;;;18.88;8.20;;;19.00;99.90;;;;;;5095697;28;20050;-62
2022/10/27 00:52:37;;;;;;;20.73;8.05;;;18.90;99.90;;;;;;5096537;28;20032;-62
2022/10/27 00:55:28;;;;;;;20.52;8.45;;;18.90;99.90;;;;;;5096355;28;20507;-61
2022/10/27 00:57:56;;;;;;;21.15;7.88;;;18.90;99.90;;;;;;5095670;28;20040;-62
2022/10/27 01:00:22;;;;;;;12.60;6.63;;;19.00;99.90;;;;;;5095820;28;20024;-62
2022/10/27 01:02:49;;;;;;;20.10;7.90;;;18.90;99.90;;;;;;5095732;28;20081;-62
2022/10/27 01:05:21;;;;;;;17.20;8.20;;;18.90;99.90;;;;;;5095754;28;20486;-62
2022/10/27 01:07:48;;;;;;;14.45;7.07;;;18.90;99.90;;;;;;5094477;28;20111;-62
2022/10/27 01:10:15;;;;;;;20.13;7.35;;;18.90;99.90;;;;;;5095608;28;20586;-62
2022/10/27 01:12:42;;;;;;;14.85;7.55;;;18.90;99.90;;;;;;5095584;28;20486;-62
2022/10/27 01:15:09;;;;;;;17.20;7.97;;;18.80;99.90;;;;;;5095611;28;20107;-62
2022/10/27 01:18:12;;;;;;;25.15;8.50;;;18.70;99.90;;;;;;5095316;28;20073;-62
2022/10/27 01:20:56;;;;;;;17.48;8.13;;;18.70;99.90;;;;;;5095652;28;20459;-62
2022/10/27 01:23:33;;;;;;;15.75;7.82;;;18.70;99.90;;;;;;5095404;28;20028;-62
2022/10/27 01:26:20;;;;;;;15.57;6.85;;;18.80;99.90;;;;;;5095444;28;20127;-62
2022/10/27 01:28:57;;;;;;;18.75;7.38;;;18.90;99.90;;;;;;5095757;28;20118;-62
2022/10/27 01:31:25;;;;;;;16.02;7.35;;;18.80;99.90;;;;;;5095539;28;20020;-62
2022/10/27 01:34:05;;;;;;;17.92;7.63;;;18.60;99.90;;;;;;5094476;28;20135;-62
2022/10/27 01:36:44;;;;;;;21.35;7.93;;;18.70;99.90;;;;;;5095175;28;20023;-62
2022/10/27 01:39:29;;;;;;;14.55;6.70;;;18.70;99.90;;;;;;5095110;28;20025;-62
2022/10/27 01:42:16;;;;;;;13.98;6.47;;;18.80;99.90;;;;;;5095438;28;20024;-61
2022/10/27 01:44:48;;;;;;;17.60;7.43;;;18.80;99.90;;;;;;5093813;28;20414;-62
2022/10/27 01:47:15;;;;;;;19.77;7.65;;;18.80;99.90;;;;;;5094942;28;20497;-62
2022/10/27 01:49:42;;;;;;;19.90;7.72;;;18.80;99.90;;;;;;5095070;28;20144;-62
2022/10/27 01:52:44;;;;;;;17.83;7.05;;;18.70;99.90;;;;;;5094387;28;20055;-61
2022/10/27 01:55:22;;;;;;;14.63;6.55;;;18.80;99.90;;;;;;5094916;28;20031;-62
2022/10/27 01:58:08;;;;;;;14.18;7.60;;;18.80;99.90;;;;;;5094808;28;20073;-62
2022/10/27 02:00:59;;;;;;;26.23;7.60;;;18.80;99.90;;;;;;5094590;28;20035;-63
2022/10/27 02:03:43;;;;;;;15.45;7.38;;;18.80;99.90;;;;;;5094220;28;20077;-62
2022/10/27 02:06:16;;;;;;;18.63;7.90;;;18.70;99.90;;;;;;5094708;28;20472;-62
2022/10/27 02:08:51;;;;;;;18.58;7.53;;;18.80;99.90;;;;;;5094785;28;20024;-62
2022/10/27 02:11:17;;;;;;;14.68;6.70;;;18.80;99.90;;;;;;5094549;28;20027;-63
2022/10/27 02:13:45;;;;;;;16.52;7.40;;;18.80;99.90;;;;;;5094771;28;20024;-62
2022/10/27 02:16:26;;;;;;;16.70;6.72;;;18.80;99.90;;;;;;5094018;28;20126;-62
2022/10/27 02:19:14;;;;;;;18.83;7.38;;;18.80;99.90;;;;;;5094380;28;20107;-62
2022/10/27 02:21:43;;;;;;;13.82;6.03;;;18.90;99.90;;;;;;5094633;28;20383;-62
2022/10/27 02:24:08;;;;;;;17.30;6.72;;;18.90;99.90;;;;;;5094323;28;20036;-62
2022/10/27 02:26:43;;;;;;;17.02;7.47;;;19.00;99.90;;;;;;5092896;28;20512;-62
2022/10/27 02:29:14;;;;;;;17.55;6.72;;;19.00;99.90;;;;;;5094254;28;20028;-62
2022/10/27 02:31:46;;;;;;;14.77;7.00;;;19.00;99.90;;;;;;5093960;28;20383;-62
2022/10/27 02:34:13;;;;;;;13.55;6.13;;;19.00;99.90;;;;;;5093675;28;20097;-62
2022/10/27 02:36:39;;;;;;;13.90;6.18;;;19.00;99.90;;;;;;5094339;28;20104;-62
2022/10/27 02:39:05;;;;;;;14.35;6.13;;;19.20;99.90;;;;;;5093958;28;20525;-62
2022/10/27 02:41:30;;;;;;;13.27;6.03;;;19.10;99.90;;;;;;5093921;28;20056;-63
2022/10/27 02:43:56;;;;;;;13.35;6.20;;;19.20;99.90;;;;;;5094136;28;20562;-62
2022/10/27 02:46:22;;;;;;;16.27;6.40;;;19.20;99.90;;;;;;5093756;28;20536;-62
2022/10/27 02:48:47;;;;;;;15.70;6.25;;;19.20;99.90;;;;;;5093773;28;20051;-62
2022/10/27 02:51:13;;;;;;;15.88;5.65;;;19.20;99.90;;;;;;5093816;28;20069;-62
2022/10/27 02:53:38;;;;;;;15.43;5.78;;;19.30;99.90;;;;;;5094097;28;20034;-62
2022/10/27 02:56:04;;;;;;;13.75;6.25;;;19.30;99.90;;;;;;5093580;28;20039;-62
2022/10/27 02:58:30;;;;;;;13.63;5.85;;;19.20;99.90;;;;;;5093448;28;20386;-63
2022/10/27 03:00:56;;;;;;;12.13;5.80;;;19.20;99.90;;;;;;5093172;28;20047;-62
2022/10/27 03:03:22;;;;;;;13.88;6.05;;;19.20;99.90;;;;;;5092684;28;20020;-63
2022/10/27 03:05:48;;;;;;;12.73;6.38;;;19.20;99.90;;;;;;5093514;28;20020;-62
2022/10/27 03:08:14;;;;;;;15.20;6.28;;;19.10;99.90;;;;;;5093434;28;20505;-62
2022/10/27 03:10:40;;;;;;;10.48;6.25;;;19.20;99.90;;;;;;5093675;28;20023;-63
2022/10/27 03:13:05;;;;;;;18.00;6.20;;;19.10;99.90;;;;;;5093241;28;20513;-62
2022/10/27 03:15:31;;;;;;;13.18;5.85;;;19.10;99.90;;;;;;5092929;28;20028;-62
2022/10/27 03:17:57;;;;;;;12.90;6.00;;;19.00;99.90;;;;;;5093208;28;20028;-62
2022/10/27 03:20:22;;;;;;;15.43;5.90;;;19.00;99.90;;;;;;5092341;28;20036;-62
2022/10/27 03:22:48;;;;;;;15.65;6.10;;;18.90;99.90;;;;;;5092872;28;20051;-62
2022/10/27 03:25:14;;;;;;;11.35;5.93;;;18.90;99.90;;;;;;5092756;28;20028;-62
2022/10/27 03:27:42;;;;;;;15.63;5.88;;;19.00;99.90;;;;;;5092672;28;20036;-63
2022/10/27 03:30:11;;;;;;;13.02;5.93;;;19.00;99.90;;;;;;5093027;28;20020;-61
2022/10/27 03:32:37;;;;;;;12.60;5.75;;;19.00;99.90;;;;;;5092742;28;20107;-63
2022/10/27 03:35:03;;;;;;;11.35;5.75;;;19.10;99.90;;;;;;5092541;28;20110;-62
2022/10/27 03:37:29;;;;;;;16.10;5.72;;;19.20;99.90;;;;;;5092939;28;20035;-62
2022/10/27 03:39:54;;;;;;;13.65;5.32;;;19.10;99.90;;;;;;5093072;28;20510;-62
2022/10/27 03:42:20;;;;;;;15.25;5.40;;;19.20;99.90;;;;;;5092760;28;20501;-62
2022/10/27 03:44:46;;;;;;;12.65;5.60;;;19.10;99.90;;;;;;5092472;28;20486;-62
2022/10/27 03:47:11;;;;;;;16.05;5.78;;;19.10;99.90;;;;;;5092680;28;20016;-62
2022/10/27 03:49:37;;;;;;;15.30;5.50;;;19.10;99.90;;;;;;5092955;28;20024;-62
2022/10/27 03:52:03;;;;;;;14.73;5.40;;;19.10;99.90;;;;;;5092903;28;20027;-62
2022/10/27 03:54:29;;;;;;;14.27;5.22;;;19.10;99.90;;;;;;5092548;28;20044;-62
2022/10/27 03:56:55;;;;;;;13.57;5.20;;;19.20;99.90;;;;;;5092404;28;20045;-62
2022/10/27 03:59:21;;;;;;;11.50;5.00;;;19.20;99.90;;;;;;5092051;28;20055;-62
2022/10/27 04:01:47;;;;;;;12.00;5.25;;;19.40;99.90;;;;;;5092515;28;20505;-62
2022/10/27 04:04:13;;;;;;;11.35;4.70;;;19.40;99.90;;;;;;5092844;28;20115;-62
2022/10/27 04:06:39;;;;;;;14.02;5.10;;;19.40;99.90;;;;;;5092334;28;20103;-62
2022/10/27 04:09:05;;;;;;;9.70;5.20;;;19.50;99.90;;;;;;5092504;28;20028;-62
2022/10/27 04:11:31;;;;;;;12.75;5.15;;;19.70;99.90;;;;;;5092573;28;20020;-62
2022/10/27 04:13:56;;;;;;;15.00;4.82;;;19.60;99.90;;;;;;5092103;28;20478;-62
2022/10/27 04:16:22;;;;;;;12.80;5.13;;;19.60;99.90;;;;;;5092248;28;20406;-63
2022/10/27 04:18:48;;;;;;;15.23;4.40;;;19.50;99.90;;;;;;5092333;28;20035;-62
2022/10/27 04:21:14;;;;;;;16.20;5.85;;;19.60;99.90;;;;;;5092546;28;20031;-62
2022/10/27 04:23:40;;;;;;;13.82;5.43;;;19.50;99.90;;;;;;5092173;28;20107;-62
2022/10/27 04:26:06;;;;;;;12.40;4.60;;;19.50;99.90;;;;;;5092270;28;20154;-62
2022/10/27 04:28:32;;;;;;;12.73;5.28;;;19.50;99.90;;;;;;5091798;28;20041;-62
2022/10/27 04:30:58;;;;;;;14.30;4.95;;;19.50;99.90;;;;;;5092193;28;20523;-62
2022/10/27 04:33:23;;;;;;;13.15;4.97;;;19.50;99.90;;;;;;5092432;28;20031;-62
2022/10/27 04:35:49;;;;;;;11.23;5.15;;;19.50;99.90;;;;;;5091957;28;20056;-62
2022/10/27 04:38:15;;;;;;;11.50;4.88;;;19.50;99.90;;;;;;5092057;28;20534;-62
2022/10/27 04:40:40;;;;;;;10.52;4.90;;;19.50;99.90;;;;;;5091525;28;20143;-61
2022/10/27 04:43:06;;;;;;;11.27;4.90;;;19.50;99.90;;;;;;5092738;28;20020;-62
2022/10/27 04:45:33;;;;;;;12.52;4.78;;;19.50;99.90;;;;;;5092223;28;20029;-62
2022/10/27 04:47:59;;;;;;;12.85;5.13;;;19.40;99.90;;;;;;5092461;28;20450;-62
2022/10/27 04:50:25;;;;;;;12.98;5.20;;;19.40;99.90;;;;;;5092330;28;20052;-62
2022/10/27 04:52:58;;;;;;;12.57;4.97;;;19.40;99.90;;;;;;5091771;28;20492;-62
2022/10/27 04:55:25;;;;;;;9.35;4.90;;;19.40;99.90;;;;;;5091305;28;20032;-62
2022/10/27 04:57:51;;;;;;;10.95;5.20;;;19.40;99.90;;;;;;5092216;28;20107;-63
2022/10/27 05:00:17;;;;;;;10.20;5.00;;;19.40;99.90;;;;;;5092448;28;20517;-63
2022/10/27 05:02:43;;;;;;;13.90;4.70;;;19.40;99.90;;;;;;5091842;28;20052;-63
2022/10/27 05:05:09;;;;;;;11.40;4.85;;;19.40;99.90;;;;;;5091985;28;20039;-62
2022/10/27 05:07:34;;;;;;;12.38;4.97;;;19.40;99.90;;;;;;5091749;28;20040;-62
2022/10/27 05:10:00;;;;;;;13.15;5.05;;;19.40;99.90;;;;;;5091319;28;20047;-62
2022/10/27 05:12:26;;;;;;;12.40;4.45;;;19.30;99.90;;;;;;5091972;28;20111;-62
2022/10/27 05:14:52;;;;;;;12.05;4.72;;;19.30;99.90;;;;;;5091642;28;20595;-62
2022/10/27 05:17:17;;;;;;;14.85;4.82;;;19.20;99.90;;;;;;5091561;28;20024;-62
2022/10/27 05:19:43;;;;;;;12.60;4.70;;;19.30;99.90;;;;;;5092131;28;20390;-62
2022/10/27 05:22:08;;;;;;;11.93;5.22;;;19.40;99.90;;;;;;5092270;28;20391;-62
2022/10/27 05:24:34;;;;;;;13.57;4.90;;;19.40;99.90;;;;;;5091034;28;20032;-62
2022/10/27 05:27:00;;;;;;;13.57;4.68;;;19.40;99.90;;;;;;5092542;28;20020;-62
2022/10/27 05:29:26;;;;;;;13.65;4.80;;;19.50;99.90;;;;;;5095148;28;20032;-62
2022/10/27 05:31:52;;;;;;;13.07;4.25;;;19.70;99.90;;;;;;5095151;28;20035;-62
2022/10/27 05:34:18;;;;;;;13.88;4.78;;;19.70;99.90;;;;;;5095373;28;20406;-62
2022/10/27 05:36:43;;;;;;;10.85;4.68;;;19.60;99.90;;;;;;5095060;28;20509;-62
2022/10/27 05:39:09;;;;;;;8.77;4.28;;;19.60;99.90;;;;;;5095034;28;20024;-62
2022/10/27 05:41:35;;;;;;;11.60;4.70;;;19.60;99.90;;;;;;5095091;28;20039;-62
2022/10/27 05:44:00;;;;;;;9.77;4.28;;;19.70;99.90;;;;;;5095565;28;20368;-62
2022/10/27 05:46:26;;;;;;;14.20;4.53;;;19.60;99.90;;;;;;5094472;28;20032;-61
2022/10/27 05:48:52;;;;;;;10.80;4.63;;;19.60;99.90;;;;;;5094685;28;20020;-62
2022/10/27 05:51:17;;;;;;;10.82;4.53;;;19.50;99.90;;;;;;5093717;28;20039;-62
2022/10/27 05:53:43;;;;;;;11.82;4.35;;;19.40;99.90;;;;;;5093823;28;20024;-61
2022/10/27 05:56:08;;;;;;;10.63;4.10;;;19.50;99.90;;;;;;5094353;28;20103;-62
2022/10/27 05:58:34;;;;;;;10.40;4.40;;;19.50;99.90;;;;;;5094494;28;20035;-62
2022/10/27 06:01:00;;;;;;;14.35;4.60;;;19.50;99.90;;;;;;5094939;28;20020;-61
2022/10/27 06:03:26;;;;;;;11.65;4.22;;;19.50;99.90;;;;;;5094397;28;20132;-62
2022/10/27 06:05:52;;;;;;;10.05;4.35;;;19.60;99.90;;;;;;5094649;28;20024;-61
2022/10/27 06:08:19;;;;;;;9.70;4.28;;;19.60;99.90;;;;;;5093996;28;20051;-60
2022/10/27 06:10:45;;;;;;;12.30;4.38;;;19.60;99.90;;;;;;5094057;28;20032;-62
2022/10/27 06:13:15;;;;;;;11.98;4.32;;;19.60;99.90;;;;;;5094491;28;20020;-62
2022/10/27 06:15:41;;;;;;;10.32;4.40;;;19.50;99.90;;;;;;5094196;28;20482;-62
2022/10/27 06:18:07;;;;;;;9.85;4.35;;;19.50;99.90;;;;;;5094661;28;20032;-62
2022/10/27 06:20:33;;;;;;;10.77;4.32;;;19.50;99.90;;;;;;5094431;28;20024;-62
2022/10/27 06:22:59;;;;;;;12.35;4.22;;;19.60;99.90;;;;;;5093915;28;20051;-62
2022/10/27 06:25:24;;;;;;;11.23;4.45;;;19.70;99.90;;;;;;5094220;28;20092;-62
2022/10/27 06:27:50;;;;;;;10.27;4.68;;;19.60;99.90;;;;;;5094147;28;20016;-62
2022/10/27 06:30:16;;;;;;;8.23;4.55;;;19.50;99.90;;;;;;5094454;28;20032;-62
2022/10/27 06:32:42;;;;;;;13.05;4.70;;;19.50;99.90;;;;;;5094528;28;20125;-62
2022/10/27 06:35:09;;;;;;;11.10;4.63;;;19.50;99.90;;;;;;5093619;28;20400;-62
2022/10/27 06:37:39;;;;;;;11.35;4.60;;;19.50;99.90;;;;;;5093431;28;20093;-62
2022/10/27 06:40:06;;;;;;;9.98;4.78;;;19.50;99.90;;;;;;5093679;28;20059;-62
2022/10/27 06:42:35;;;;;;;11.48;4.32;;;19.60;99.90;;;;;;5094116;28;20020;-62
2022/10/27 06:45:01;;;;;;;11.60;4.07;;;19.60;99.90;;;;;;5093882;28;20020;-62
2022/10/27 06:47:26;;;;;;;10.80;4.15;;;19.60;99.90;;;;;;5093534;28;20551;-62
2022/10/27 06:49:52;;;;;;;14.73;4.72;;;19.70;99.90;;;;;;5093749;28;20538;-61
2022/10/27 06:52:18;;;;;;;12.18;4.07;;;19.80;99.90;;;;;;5093235;28;20543;-62
2022/10/27 06:54:43;;;;;;;10.25;4.13;;;19.70;99.90;;;;;;5094003;28;20028;-61
2022/10/27 06:57:09;;;;;;;15.93;4.20;;;19.80;99.90;;;;;;5093253;28;20028;-60
2022/10/27 06:59:34;;;;;;;12.40;4.10;;;20.00;99.90;;;;;;5093438;28;20069;-61
2022/10/27 07:02:02;;;;;;;15.45;4.30;;;20.00;99.90;;;;;;5092321;28;20493;-60
2022/10/27 07:04:28;;;;;;;13.15;4.10;;;20.00;99.90;;;;;;5093743;28;20121;-62
2022/10/27 07:06:53;;;;;;;11.63;4.25;;;20.00;99.90;;;;;;5093090;28;20032;-61
2022/10/27 07:09:19;;;;;;;14.35;4.72;;;20.00;99.90;;;;;;5093497;28;20116;-62
2022/10/27 07:11:45;;;;;;;14.88;4.60;;;20.00;99.90;;;;;;5093445;28;20390;-63
2022/10/27 07:14:10;;;;;;;13.20;4.18;;;20.00;99.90;;;;;;5092722;28;20107;-61
2022/10/27 07:16:36;;;;;;;9.35;3.85;;;20.00;99.90;;;;;;5093092;28;20046;-62
2022/10/27 07:19:02;;;;;;;11.45;4.43;;;20.00;99.90;;;;;;5093472;28;20605;-61
2022/10/27 07:21:28;;;;;;;15.65;4.82;;;19.90;99.90;;;;;;5092432;28;20024;-62
2022/10/27 07:23:54;;;;;;;13.43;4.43;;;19.90;99.90;;;;;;5093426;28;20041;-62
2022/10/27 07:26:19;;;;;;;12.07;4.32;;;19.90;99.90;;;;;;5093112;28;20028;-62
2022/10/27 07:28:45;;;;;;;15.18;4.57;;;19.80;99.90;;;;;;5093097;28;20012;-62
2022/10/27 07:31:11;;;;;;;11.88;4.40;;;19.70;99.90;;;;;;5092924;28;20028;-61
2022/10/27 07:33:36;;;;;;;13.75;4.28;;;19.70;99.90;;;;;;5092755;28;20039;-62
2022/10/27 07:36:02;;;;;;;13.88;5.07;;;19.60;99.90;;;;;;5091981;28;20170;-62
2022/10/27 07:38:31;;;;;;;12.48;4.38;;;19.50;99.90;;;;;;5093044;28;20024;-63
2022/10/27 07:40:56;;;;;;;9.00;3.92;;;19.60;99.90;;;;;;5092681;28;20409;-62
2022/10/27 07:43:22;;;;;;;12.45;4.78;;;19.50;99.90;;;;;;5091719;28;20024;-61
2022/10/27 07:45:48;;;;;;;10.07;4.40;;;19.50;99.90;;;;;;5092761;28;20095;-62
2022/10/27 07:48:15;;;;;;;12.45;4.97;;;19.50;99.90;;;;;;5092622;28;20055;-62
2022/10/27 07:50:42;;;;;;;13.50;4.60;;;19.50;99.90;;;;;;5092224;28;20490;-62
2022/10/27 07:53:09;;;;;;;12.02;4.35;;;19.40;99.90;;;;;;5092517;28;20038;-61
2022/10/27 07:55:36;;;;;;;10.52;4.50;;;19.30;99.90;;;;;;5092505;28;20125;-61
2022/10/27 07:58:09;;;;;;;13.07;4.63;;;19.40;99.90;;;;;;5091046;28;20093;-62
2022/10/27 08:00:40;;;;;;;13.30;5.20;;;19.30;99.90;;;;;;5092326;28;20016;-62
2022/10/27 08:03:09;;;;;;;12.88;5.22;;;19.20;99.90;;;;;;5092134;28;20032;-61
2022/10/27 08:05:36;;;;;;;11.10;4.72;;;19.20;99.90;;;;;;5091392;28;20467;-62
2022/10/27 08:08:04;;;;;;;14.95;5.03;;;19.20;99.90;;;;;;5091532;28;20069;-62
2022/10/27 08:10:32;;;;;;;13.00;4.85;;;19.30;99.90;;;;;;5091865;28;20020;-61
2022/10/27 08:12:58;;;;;;;14.10;5.57;;;19.30;99.90;;;;;;5091917;28;20016;-62
2022/10/27 08:15:24;;;;;;;13.93;5.35;;;19.40;99.90;;;;;;5091770;28;20035;-62
2022/10/27 08:17:55;;;;;;;12.43;4.95;;;19.40;99.90;;;;;;5092108;28;20457;-61
2022/10/27 08:20:22;;;;;;;14.15;5.18;;;19.50;99.90;;;;;;5091716;28;20038;-62
2022/10/27 08:23:02;;;;;;;16.70;5.30;;;19.60;99.90;;;;;;5092130;28;20090;-62
2022/10/27 08:25:28;;;;;;;12.85;5.20;;;19.70;99.90;;;;;;5091931;28;20467;-60
2022/10/27 08:27:55;;;;;;;13.80;5.05;;;19.70;99.90;;;;;;5091819;28;20020;-61
2022/10/27 08:30:21;;;;;;;9.88;4.80;;;19.70;99.90;;;;;;5092256;28;20478;-61
2022/10/27 08:32:47;;;;;;;14.05;5.10;;;19.80;99.90;;;;;;5091567;28;20020;-60
2022/10/27 08:35:13;;;;;;;15.10;4.75;;;19.90;99.90;;;;;;5091258;28;20043;-61
2022/10/27 08:37:39;;;;;;;12.15;4.68;;;19.90;99.90;;;;;;5091556;28;20027;-61
2022/10/27 08:40:07;;;;;;;14.25;5.18;;;20.00;99.90;;;;;;5091531;28;20048;-62
2022/10/27 08:42:51;;;;;;;19.35;4.90;;;20.00;99.90;;;;;;5092022;28;20024;-61
2022/10/27 08:45:30;;;;;;;13.23;5.18;;;20.10;99.90;;;;;;5090943;28;20043;-61
2022/10/27 08:47:58;;;;;;;13.38;4.72;;;20.10;99.90;;;;;;5091070;28;20080;-62
2022/10/27 08:50:27;;;;;;;13.02;4.45;;;20.10;99.90;;;;;;5091490;28;20069;-62
2022/10/27 08:53:04;;;;;;;15.07;4.53;;;20.20;99.90;;;;;;5091495;28;20027;-62
2022/10/27 08:55:34;;;;;;;14.10;4.70;;;20.20;99.90;;;;;;5091806;28;20161;-62
2022/10/27 08:58:16;;;;;;;14.68;4.47;;;20.40;99.90;;;;;;5091715;28;20086;-62
2022/10/27 09:00:55;;;;;;;16.48;5.47;;;20.50;99.90;;;;;;5092264;28;20070;-61
2022/10/27 09:03:58;;;;;;;15.02;6.35;;;20.60;99.90;;;;;;5095027;28;20505;-61
2022/10/27 09:06:46;;;;;;;13.85;4.40;;;20.70;99.90;;;;;;5095918;28;20540;-61
2022/10/27 09:09:26;;;;;;;25.10;13.88;;;20.90;99.90;;;;;;5093441;28;20087;-61
2022/10/27 09:12:05;;;;;;;15.00;6.20;;;20.90;99.90;;;;;;5093420;28;20040;-61
2022/10/27 09:14:49;;;;;;;12.45;4.93;;;21.00;99.90;;;;;;5093436;28;20059;-61
2022/10/27 09:17:26;;;;;;;50.53;30.15;;;21.10;99.90;;;;;;5093427;28;20020;-62
2022/10/27 09:20:00;;;;;;;36.38;21.63;;;21.10;99.90;;;;;;5092619;28;20166;-62
2022/10/27 09:22:29;;;;;;;23.08;13.85;;;21.10;99.90;;;;;;5093193;28;20026;-62
2022/10/27 09:25:12;;;;;;;15.18;7.40;;;21.00;99.90;;;;;;5094305;28;20043;-62
2022/10/27 09:27:41;;;;;;;23.92;11.43;;;21.10;99.90;;;;;;5093400;28;20033;-62
2022/10/27 09:30:12;;;;;;;13.15;5.78;;;21.20;99.90;;;;;;5093131;28;20032;-62
2022/10/27 09:32:41;;;;;;;14.82;4.63;;;21.20;99.90;;;;;;5092738;28;20039;-62
2022/10/27 09:35:12;;;;;;;31.42;18.13;;;21.20;99.90;;;;;;5092864;28;20054;-62
2022/10/27 09:37:41;;;;;;;32.97;20.08;;;21.30;99.90;;;;;;5093057;28;20027;-62
2022/10/27 09:40:16;;;;;;;33.72;20.02;;;21.40;99.90;;;;;;5093135;28;20056;-62
2022/10/27 09:42:42;;;;;;;80.82;55.10;;;21.50;99.90;;;;;;5092976;28;20036;-62
2022/10/27 09:45:17;;;;;;;17.40;6.53;;;21.40;99.90;;;;;;5092523;28;20113;-62
2022/10/27 09:47:51;;;;;;;38.92;23.55;;;21.40;99.90;;;;;;5095092;28;20530;-62
2022/10/27 09:50:24;;;;;;;71.10;47.47;;;21.40;99.90;;;;;;5095031;28;20043;-62
2022/10/27 09:52:51;;;;;;;75.55;53.00;;;21.50;99.90;;;;;;5094999;28;20077;-62
2022/10/27 09:55:17;;;;;;;13.25;4.57;;;21.50;99.90;;;;;;5094802;28;20052;-62
2022/10/27 09:57:46;;;;;;;28.48;12.90;;;21.60;99.90;;;;;;5095348;28;20384;-62
2022/10/27 10:00:15;;;;;;;52.10;32.58;;;21.60;99.90;;;;;;5094125;28;20398;-62
2022/10/27 10:02:54;;;;;;;19.52;9.38;;;21.70;99.90;;;;;;5095048;28;20016;-62
2022/10/27 10:05:31;;;;;;;48.55;29.95;;;21.70;99.90;;;;;;5094688;28;20037;-62
2022/10/27 10:08:23;;;;;;;16.63;5.45;;;21.60;99.90;;;;;;5094680;28;20024;-62
2022/10/27 10:11:00;;;;;;;17.45;5.78;;;21.70;99.90;;;;;;5094535;28;20028;-62
2022/10/27 10:13:28;;;;;;;14.00;5.65;;;21.70;99.90;;;;;;5093929;28;20099;-61
2022/10/27 10:16:15;;;;;;;23.85;10.70;;;21.90;99.90;;;;;;5094087;28;20028;-62
2022/10/27 10:18:55;;;;;;;58.17;39.45;;;22.00;99.90;;;;;;5094388;28;20109;-61
2022/10/27 10:21:21;;;;;;;14.18;4.97;;;22.10;99.90;;;;;;5094828;28;20024;-62
2022/10/27 10:23:51;;;;;;;17.20;5.10;;;22.30;99.90;;;;;;5094395;28;20038;-62
2022/10/27 10:26:26;;;;;;;48.13;28.83;;;23.00;99.90;;;;;;5094332;28;20020;-62
2022/10/27 10:28:55;;;;;;;20.42;9.52;;;23.00;99.90;;;;;;5093783;28;20401;-62
2022/10/27 10:31:24;;;;;;;15.05;5.78;;;23.10;99.90;;;;;;5094086;28;20036;-62
2022/10/27 10:33:51;;;;;;;14.88;4.90;;;23.00;99.90;;;;;;5093943;28;20051;-62
2022/10/27 10:36:38;;;;;;;39.47;22.63;;;23.00;99.90;;;;;;5074019;28;20119;-62
2022/10/27 10:39:42;;;;;;;18.90;8.18;;;23.00;99.90;;;;;;5074007;28;20025;-61
2022/10/27 10:42:17;;;;;;;27.00;16.98;;;23.20;99.90;;;;;;5071884;28;20044;-62
2022/10/27 10:44:44;;;;;;;35.78;23.95;;;23.00;99.90;;;;;;5071056;28;20028;-62
2022/10/27 10:47:29;;;;;;;15.65;4.57;;;23.20;99.90;;;;;;5071306;28;20032;-62
2022/10/27 10:50:00;;;;;;;9.50;4.18;;;23.30;99.90;;;;;;5071224;28;20028;-62
2022/10/27 10:52:36;;;;;;;18.30;7.80;;;23.50;99.90;;;;;;5071278;28;20146;-62
2022/10/27 10:55:34;;;;;;;37.90;23.95;;;23.50;99.90;;;;;;5071549;28;20499;-62
2022/10/27 10:58:00;;;;;;;47.83;32.50;;;23.80;99.90;;;;;;5070741;28;20032;-61
2022/10/27 11:00:26;;;;;;;38.08;24.00;;;23.80;99.90;;;;;;5071088;28;20514;-61
2022/10/27 11:02:54;;;;;;;19.05;5.90;;;23.80;99.90;;;;;;5071026;28;20025;-61
2022/10/27 11:05:24;;;;;;;17.80;6.10;;;24.10;99.90;;;;;;5071340;28;20027;-62
2022/10/27 11:07:50;;;;;;;16.08;4.75;;;24.10;99.90;;;;;;5070992;28;20021;-62
2022/10/27 11:10:26;;;;;;;38.33;24.25;;;24.10;99.90;;;;;;5070965;28;20032;-62
2022/10/27 11:13:06;;;;;;;17.40;8.23;;;24.20;99.90;;;;;;5071387;28;20036;-62
2022/10/27 11:15:42;;;;;;;20.77;10.15;;;24.20;99.90;;;;;;5073168;28;20037;-62
2022/10/27 11:18:23;;;;;;;31.00;17.67;;;24.40;99.90;;;;;;5073025;28;20024;-62
2022/10/27 11:20:59;;;;;;;30.48;15.25;;;24.50;99.90;;;;;;5073047;28;20108;-62
2022/10/27 11:23:51;;;;;;;17.42;7.88;;;24.40;99.90;;;;;;5073045;28;20020;-62
2022/10/27 11:26:52;;;;;;;39.95;29.50;;;24.40;99.90;;;;;;5072434;28;20474;-62
2022/10/27 11:29:40;;;;;;;26.42;11.80;;;24.10;99.90;;;;;;5072964;28;20025;-62
2022/10/27 11:32:28;;;;;;;15.18;6.70;;;23.90;99.90;;;;;;5072835;28;20158;-62
2022/10/27 11:35:17;;;;;;;21.42;10.13;;;23.80;99.90;;;;;;5082934;28;20047;-62
2022/10/27 11:38:04;;;;;;;21.58;11.48;;;23.60;99.90;;;;;;5093427;28;20109;-62
2022/10/27 11:40:48;;;;;;;44.13;31.15;;;23.50;99.90;;;;;;5092835;28;20075;-63
2022/10/27 11:43:39;;;;;;;;;;;23.40;99.90;;;;;;5092884;28;20389;-61
2022/10/27 11:46:35;;;;;;;12.00;4.60;;;23.50;99.90;;;;;;5092386;28;19911;-61
2022/10/27 11:49:26;;;;;;;19.30;4.93;;;23.70;99.90;;;;;;5092691;28;20032;-62
2022/10/27 11:51:57;;;;;;;23.75;11.45;;;23.70;99.90;;;;;;5092588;28;20032;-62
2022/10/27 11:54:25;;;;;;;13.23;5.28;;;23.70;99.90;;;;;;5092997;28;20036;-62
2022/10/27 11:56:59;;;;;;;17.17;5.28;;;23.70;99.90;;;;;;5092020;28;20032;-63
2022/10/27 11:59:47;;;;;;;20.17;9.05;;;23.80;99.90;;;;;;5092809;28;20024;-62
2022/10/27 12:02:15;;;;;;;19.95;9.65;;;23.60;99.90;;;;;;5092599;28;20028;-62
2022/10/27 12:04:59;;;;;;;37.25;27.40;;;23.50;99.90;;;;;;5092787;28;20024;-61
2022/10/27 12:07:27;;;;;;;14.82;7.32;;;23.30;99.90;;;;;;5092432;28;20386;-62
2022/10/27 12:10:20;;;;;;;14.13;4.72;;;23.10;99.90;;;;;;5092479;28;20112;-62
2022/10/27 12:13:00;;;;;;;15.63;6.03;;;23.10;99.90;;;;;;5092358;28;20028;-63
2022/10/27 12:15:46;;;;;;;14.57;5.00;;;23.10;99.90;;;;;;5092837;28;20078;-62
2022/10/27 12:18:21;;;;;;;28.85;18.45;;;23.20;99.90;;;;;;5092351;28;20024;-62
2022/10/27 12:21:13;;;;;;;15.38;5.53;;;23.20;99.90;;;;;;5092290;28;20101;-62
2022/10/27 12:23:54;;;;;;;14.60;6.18;;;23.10;99.90;;;;;;5091613;28;20035;-62
2022/10/27 12:26:30;;;;;;;19.90;9.30;;;23.10;99.90;;;;;;5092047;28;20024;-62
2022/10/27 12:28:57;;;;;;;18.35;7.28;;;23.00;99.90;;;;;;5092026;28;20540;-62
2022/10/27 12:31:28;;;;;;;18.60;5.38;;;22.80;99.90;;;;;;5092226;28;20111;-62
2022/10/27 12:33:59;;;;;;;14.20;5.30;;;23.00;99.90;;;;;;5092288;28;20406;-62
2022/10/27 12:36:56;;;;;;;16.13;5.43;;;23.20;99.90;;;;;;5095878;28;20362;-62
2022/10/27 12:39:35;;;;;;;13.73;4.15;;;23.80;99.90;;;;;;5097569;28;20024;-61
2022/10/27 12:42:13;;;;;;;18.85;4.43;;;24.20;99.90;;;;;;5098424;28;20482;-62
2022/10/27 12:45:16;;;;;;;11.73;4.00;;;24.60;99.90;;;;;;5098233;28;20482;-62
2022/10/27 12:47:41;;;;;;;18.65;8.65;;;24.60;99.90;;;;;;5098490;28;20470;-61
2022/10/27 12:50:36;;;;;;;15.63;6.05;;;24.40;99.90;;;;;;5098817;28;20027;-61
2022/10/27 12:53:25;;;;;;;17.50;8.25;;;24.30;99.90;;;;;;5098751;28;20062;-60
2022/10/27 12:56:14;;;;;;;13.88;4.60;;;24.20;99.90;;;;;;5098639;28;20028;-62